Time;durP1;ratioP1;P1;durP2;ratioP2;P2;SDS_P1;SDS_P2;PMS_P1;PMS_P2;Temp;Humidity;BMP_temperature;BMP_pressure;BME280_temperature;BME280_humidity;BME280_pressure;Samples;Min_cycle;Max_cycle;Signal;HPM_P1;HPM_P2
2023/04/06 00:00:50;;;;;;;22.80;10.98;;;-2.40;84.10;;;;;;4975143;28;20050;-75
2023/04/06 00:03:16;;;;;;;17.67;11.70;;;-2.40;84.00;;;;;;4974961;28;20034;-75
2023/04/06 00:05:42;;;;;;;19.85;11.70;;;-2.40;83.90;;;;;;4957636;28;20026;-76
2023/04/06 00:08:08;;;;;;;18.58;11.75;;;-2.40;84.50;;;;;;4957695;28;20030;-75
2023/04/06 00:10:33;;;;;;;17.25;10.90;;;-2.40;83.80;;;;;;4974825;28;20094;-76
2023/04/06 00:12:59;;;;;;;21.80;10.57;;;-2.50;83.70;;;;;;4957485;28;20397;-76
2023/04/06 00:15:26;;;;;;;19.05;10.85;;;-2.50;83.90;;;;;;4974818;28;20058;-76
2023/04/06 00:17:51;;;;;;;22.80;10.63;;;-2.50;84.10;;;;;;4974718;28;20026;-76
2023/04/06 00:20:18;;;;;;;18.15;10.93;;;-2.50;84.90;;;;;;4974592;28;20190;-76
2023/04/06 00:22:44;;;;;;;21.90;10.75;;;-2.50;85.60;;;;;;4974694;28;20050;-76
2023/04/06 00:25:10;;;;;;;21.88;12.23;;;-2.60;86.30;;;;;;4974799;28;20086;-76
2023/04/06 00:27:39;;;;;;;22.00;11.48;;;-2.60;87.90;;;;;;4974572;28;20396;-75
2023/04/06 00:30:06;;;;;;;23.90;13.52;;;-2.60;88.30;;;;;;4957246;28;20035;-76
2023/04/06 00:32:31;;;;;;;23.17;12.63;;;-2.60;88.80;;;;;;4974433;28;20094;-76
2023/04/06 00:34:58;;;;;;;20.42;12.13;;;-2.60;89.10;;;;;;4974675;28;20031;-75
2023/04/06 00:37:23;;;;;;;19.45;12.45;;;-2.70;89.60;;;;;;4974596;28;20109;-75
2023/04/06 00:39:51;;;;;;;27.02;13.27;;;-2.70;89.70;;;;;;4974546;28;20054;-75
2023/04/06 00:42:18;;;;;;;25.13;13.85;;;-2.70;89.90;;;;;;4957279;28;20105;-76
2023/04/06 00:44:43;;;;;;;21.48;13.55;;;-2.70;89.90;;;;;;4957168;28;20026;-75
2023/04/06 00:47:09;;;;;;;20.30;12.98;;;-2.70;90.00;;;;;;4974517;28;20101;-75
2023/04/06 00:49:35;;;;;;;26.55;13.77;;;-2.80;90.20;;;;;;4974255;28;20042;-75
2023/04/06 00:52:01;;;;;;;20.35;12.43;;;-2.80;90.70;;;;;;4974543;28;20034;-76
2023/04/06 00:54:28;;;;;;;22.63;12.90;;;-2.80;91.10;;;;;;4956930;28;20033;-75
2023/04/06 00:56:55;;;;;;;21.55;12.50;;;-2.80;91.40;;;;;;4957115;28;20023;-75
2023/04/06 00:59:20;;;;;;;22.80;12.65;;;-2.80;91.60;;;;;;4956947;28;20019;-75
2023/04/06 01:01:46;;;;;;;18.95;12.85;;;-2.80;91.80;;;;;;4974289;28;20448;-75
2023/04/06 01:04:12;;;;;;;24.45;13.25;;;-2.90;91.80;;;;;;4974374;28;20504;-75
2023/04/06 01:06:37;;;;;;;24.48;13.55;;;-2.90;92.10;;;;;;4958446;28;20439;-75
2023/04/06 01:09:03;;;;;;;23.10;12.82;;;-2.90;92.10;;;;;;4960876;28;20118;-75
2023/04/06 01:11:29;;;;;;;26.23;13.23;;;-2.90;92.10;;;;;;4960801;28;20038;-75
2023/04/06 01:13:55;;;;;;;23.70;12.13;;;-2.90;92.30;;;;;;4960746;28;20023;-75
2023/04/06 01:16:21;;;;;;;19.60;12.15;;;-2.90;92.40;;;;;;4978136;28;20022;-75
2023/04/06 01:18:46;;;;;;;27.92;13.88;;;-3.00;92.40;;;;;;4978011;28;20027;-74
2023/04/06 01:21:15;;;;;;;23.17;12.88;;;-3.00;92.60;;;;;;4977951;28;20053;-76
2023/04/06 01:23:45;;;;;;;25.33;13.40;;;-3.00;92.60;;;;;;4978022;28;20065;-75
2023/04/06 01:26:12;;;;;;;26.75;13.85;;;-3.10;92.60;;;;;;4978046;28;20027;-75
2023/04/06 01:28:37;;;;;;;21.20;11.82;;;-3.10;92.70;;;;;;4960410;28;20031;-76
2023/04/06 01:31:05;;;;;;;22.70;12.85;;;-3.10;92.60;;;;;;4977892;28;20035;-75
2023/04/06 01:33:30;;;;;;;26.10;12.07;;;-3.10;92.60;;;;;;4977728;28;20031;-75
2023/04/06 01:35:56;;;;;;;20.17;12.48;;;-3.10;92.30;;;;;;4977923;28;20019;-75
2023/04/06 01:38:22;;;;;;;21.30;12.43;;;-3.10;92.10;;;;;;4960240;28;20019;-76
2023/04/06 01:40:47;;;;;;;24.48;12.25;;;-3.20;91.60;;;;;;4977709;28;20019;-75
2023/04/06 01:43:13;;;;;;;23.92;13.35;;;-3.20;91.20;;;;;;4977469;28;20018;-75
2023/04/06 01:45:38;;;;;;;20.67;12.35;;;-3.20;91.00;;;;;;4960295;28;20041;-75
2023/04/06 01:48:04;;;;;;;23.45;11.73;;;-3.20;91.40;;;;;;4977508;28;20050;-75
2023/04/06 01:50:30;;;;;;;21.02;11.50;;;-3.20;90.20;;;;;;4960404;28;20046;-75
2023/04/06 01:52:55;;;;;;;20.98;10.93;;;-3.20;89.70;;;;;;4977521;28;20023;-75
2023/04/06 01:55:21;;;;;;;20.88;12.60;;;-3.20;89.60;;;;;;4977364;28;20042;-75
2023/04/06 01:57:47;;;;;;;17.17;11.38;;;-3.20;89.50;;;;;;4977370;28;20098;-75
2023/04/06 02:00:13;;;;;;;20.10;12.32;;;-3.20;89.30;;;;;;4977442;28;20489;-75
2023/04/06 02:02:39;;;;;;;22.27;12.05;;;-3.20;89.50;;;;;;4977152;28;20022;-75
2023/04/06 02:05:05;;;;;;;25.08;12.30;;;-3.20;89.40;;;;;;4977253;28;20034;-75
2023/04/06 02:07:30;;;;;;;20.23;12.48;;;-3.30;89.50;;;;;;4977184;28;20034;-75
2023/04/06 02:09:56;;;;;;;21.13;12.18;;;-3.30;89.70;;;;;;4976242;28;20077;-74
2023/04/06 02:12:22;;;;;;;23.40;12.88;;;-3.30;89.80;;;;;;4976710;28;20061;-75
2023/04/06 02:14:47;;;;;;;22.35;11.90;;;-3.30;89.70;;;;;;4995001;28;20026;-75
2023/04/06 02:17:13;;;;;;;21.40;13.07;;;-3.30;89.70;;;;;;4996526;28;20026;-75
2023/04/06 02:19:38;;;;;;;20.58;12.75;;;-3.30;89.50;;;;;;4996493;28;20030;-75
2023/04/06 02:22:04;;;;;;;24.58;15.40;;;-3.30;89.30;;;;;;4996319;28;20051;-75
2023/04/06 02:24:30;;;;;;;21.30;13.48;;;-3.30;89.30;;;;;;4996254;28;20093;-75
2023/04/06 02:26:55;;;;;;;24.95;14.95;;;-3.30;89.40;;;;;;4996378;28;20452;-75
2023/04/06 02:29:21;;;;;;;26.05;13.43;;;-3.30;89.60;;;;;;4996330;28;20479;-75
2023/04/06 02:31:46;;;;;;;32.70;13.77;;;-3.30;89.80;;;;;;4996262;28;20034;-75
2023/04/06 02:34:17;;;;;;;25.38;13.60;;;-3.40;89.80;;;;;;4996307;28;20446;-75
2023/04/06 02:36:44;;;;;;;23.67;12.93;;;-3.40;89.90;;;;;;4996282;28;20030;-75
2023/04/06 02:39:10;;;;;;;27.30;15.10;;;-3.40;90.00;;;;;;4978589;28;20027;-74
2023/04/06 02:41:36;;;;;;;24.98;13.93;;;-3.40;90.10;;;;;;4978619;28;20026;-75
2023/04/06 02:44:03;;;;;;;24.30;14.27;;;-3.40;90.40;;;;;;4995996;28;20381;-75
2023/04/06 02:46:28;;;;;;;26.52;14.52;;;-3.40;90.70;;;;;;4995946;28;20088;-74
2023/04/06 02:48:54;;;;;;;27.63;14.55;;;-3.50;90.80;;;;;;4995911;28;20468;-75
2023/04/06 02:51:20;;;;;;;23.30;13.85;;;-3.50;91.10;;;;;;4995851;28;20035;-75
2023/04/06 02:53:46;;;;;;;26.23;16.05;;;-3.50;91.10;;;;;;4978364;28;20393;-75
2023/04/06 02:56:11;;;;;;;28.88;14.30;;;-3.50;91.00;;;;;;4995803;28;20027;-76
2023/04/06 02:58:37;;;;;;;30.23;17.05;;;-3.50;91.30;;;;;;4978099;28;20014;-75
2023/04/06 03:01:03;;;;;;;28.95;17.02;;;-3.60;91.30;;;;;;4995661;28;20072;-74
2023/04/06 03:03:29;;;;;;;29.30;15.77;;;-3.60;91.60;;;;;;4995514;28;20481;-74
2023/04/06 03:05:58;;;;;;;27.73;14.20;;;-3.60;91.70;;;;;;4978497;28;20058;-75
2023/04/06 03:08:24;;;;;;;34.25;16.08;;;-3.60;91.40;;;;;;4995418;28;20019;-75
2023/04/06 03:10:50;;;;;;;28.90;14.82;;;-3.70;91.20;;;;;;4977929;28;20038;-75
2023/04/06 03:13:16;;;;;;;28.60;14.63;;;-3.70;91.50;;;;;;4995354;28;20026;-75
2023/04/06 03:15:41;;;;;;;27.23;14.57;;;-3.80;92.00;;;;;;4995444;28;20032;-75
2023/04/06 03:18:07;;;;;;;28.63;14.30;;;-3.80;92.20;;;;;;4995379;28;20026;-75
2023/04/06 03:20:32;;;;;;;28.33;14.45;;;-3.90;92.70;;;;;;4995055;28;20059;-74
2023/04/06 03:22:58;;;;;;;27.65;15.68;;;-3.90;93.10;;;;;;4969900;28;20062;-75
2023/04/06 03:25:24;;;;;;;29.05;15.35;;;-3.90;93.30;;;;;;4975786;28;20027;-74
2023/04/06 03:27:50;;;;;;;31.23;16.20;;;-3.90;93.80;;;;;;4975634;28;20027;-74
2023/04/06 03:30:17;;;;;;;35.72;15.50;;;-3.90;94.20;;;;;;4957833;28;20109;-75
2023/04/06 03:32:43;;;;;;;28.10;15.23;;;-3.90;94.50;;;;;;4975567;28;20033;-75
2023/04/06 03:35:09;;;;;;;39.00;21.48;;;-3.90;94.90;;;;;;4975755;28;20023;-74
2023/04/06 03:37:35;;;;;;;34.42;16.63;;;-3.90;95.00;;;;;;4958111;28;20026;-75
2023/04/06 03:40:01;;;;;;;29.88;16.38;;;-4.00;95.30;;;;;;4978711;28;20046;-74
2023/04/06 03:42:26;;;;;;;28.00;15.65;;;-4.00;95.80;;;;;;4995049;28;20022;-75
2023/04/06 03:44:52;;;;;;;31.60;15.25;;;-3.90;96.10;;;;;;4989827;28;20027;-74
2023/04/06 03:47:17;;;;;;;29.50;15.07;;;-3.90;96.00;;;;;;4975399;28;20490;-74
2023/04/06 03:49:43;;;;;;;58.42;17.30;;;-4.00;96.00;;;;;;4975318;28;20034;-75
2023/04/06 03:52:09;;;;;;;28.35;13.98;;;-3.90;96.40;;;;;;4975419;28;20109;-74
2023/04/06 03:54:35;;;;;;;33.50;15.43;;;-3.90;96.20;;;;;;4975117;28;20067;-75
2023/04/06 03:57:00;;;;;;;27.17;13.77;;;-3.90;96.00;;;;;;4957885;28;20030;-75
2023/04/06 03:59:26;;;;;;;27.40;14.07;;;-3.90;95.80;;;;;;4957733;28;20015;-75
2023/04/06 04:01:52;;;;;;;28.80;14.25;;;-3.80;95.60;;;;;;4975208;28;20037;-74
2023/04/06 04:04:17;;;;;;;27.27;14.13;;;-3.90;95.30;;;;;;4975104;28;20391;-75
2023/04/06 04:06:43;;;;;;;26.38;13.15;;;-3.90;95.10;;;;;;4957722;28;20022;-75
2023/04/06 04:09:08;;;;;;;23.95;15.07;;;-3.90;95.00;;;;;;4957627;28;20057;-75
2023/04/06 04:11:34;;;;;;;33.67;14.25;;;-4.00;95.20;;;;;;4957328;28;20039;-74
2023/04/06 04:14:00;;;;;;;32.20;15.02;;;-4.00;95.60;;;;;;4957444;28;20019;-75
2023/04/06 04:16:26;;;;;;;28.88;14.57;;;-4.00;96.00;;;;;;4974980;28;20099;-75
2023/04/06 04:18:51;;;;;;;29.00;13.35;;;-4.00;96.40;;;;;;4974770;28;20026;-74
2023/04/06 04:21:17;;;;;;;25.73;13.18;;;-3.90;96.90;;;;;;4974572;28;20050;-74
2023/04/06 04:23:42;;;;;;;27.15;14.25;;;-3.90;97.10;;;;;;4974709;28;20637;-75
2023/04/06 04:26:08;;;;;;;30.13;13.85;;;-3.90;96.90;;;;;;4990349;28;20073;-75
2023/04/06 04:28:34;;;;;;;25.20;13.40;;;-3.90;97.10;;;;;;4994017;28;20022;-75
2023/04/06 04:30:59;;;;;;;27.52;15.35;;;-3.90;97.20;;;;;;4989027;28;20480;-74
2023/04/06 04:33:25;;;;;;;26.23;14.00;;;-3.80;97.60;;;;;;4982001;28;20076;-75
2023/04/06 04:35:51;;;;;;;21.88;13.27;;;-3.80;97.30;;;;;;4969824;28;20424;-75
2023/04/06 04:38:16;;;;;;;25.75;14.82;;;-3.70;97.00;;;;;;4988249;28;20054;-75
2023/04/06 04:40:42;;;;;;;35.30;17.80;;;-3.70;97.40;;;;;;4987187;28;20041;-75
2023/04/06 04:43:07;;;;;;;49.65;21.27;;;-3.70;97.70;;;;;;4981577;28;20077;-75
2023/04/06 04:45:33;;;;;;;49.88;22.27;;;-3.70;98.80;;;;;;4956300;28;20026;-75
2023/04/06 04:47:59;;;;;;;58.85;22.25;;;-3.60;99.90;;;;;;4976541;28;20101;-75
2023/04/06 04:50:25;;;;;;;58.55;24.77;;;-3.50;99.90;;;;;;4973974;28;20081;-75
2023/04/06 04:52:50;;;;;;;77.13;32.67;;;-3.40;99.90;;;;;;4974369;28;20023;-75
2023/04/06 04:55:17;;;;;;;160.23;58.05;;;-3.30;99.90;;;;;;4956947;28;20085;-75
2023/04/06 04:57:43;;;;;;;495.75;169.57;;;-3.30;99.90;;;;;;4973910;28;20086;-75
2023/04/06 05:00:09;;;;;;;240.23;88.18;;;-3.30;99.90;;;;;;4983144;28;20673;-75
2023/04/06 05:02:35;;;;;;;134.57;49.22;;;-3.20;99.90;;;;;;4981653;28;20070;-75
2023/04/06 05:05:00;;;;;;;82.82;31.27;;;-3.20;99.90;;;;;;4964924;28;20080;-75
2023/04/06 05:07:26;;;;;;;59.53;26.08;;;-3.10;99.40;;;;;;4981604;28;20023;-75
2023/04/06 05:09:52;;;;;;;60.55;25.95;;;-3.00;99.30;;;;;;4979178;28;20642;-75
2023/04/06 05:12:19;;;;;;;56.65;25.27;;;-3.00;99.40;;;;;;4973692;28;20027;-75
2023/04/06 05:14:45;;;;;;;49.72;23.33;;;-3.00;99.30;;;;;;4962055;28;20126;-76
2023/04/06 05:17:11;;;;;;;60.10;24.08;;;-2.90;99.90;;;;;;4983333;28;20185;-76
2023/04/06 05:19:36;;;;;;;78.70;27.30;;;-2.70;99.90;;;;;;4963424;28;20025;-75
2023/04/06 05:22:02;;;;;;;71.32;28.10;;;-2.70;99.90;;;;;;4979682;28;20050;-76
2023/04/06 05:24:28;;;;;;;74.53;29.02;;;-2.60;99.90;;;;;;4955903;28;20182;-76
2023/04/06 05:26:54;;;;;;;69.82;29.25;;;-2.50;99.90;;;;;;4965506;28;20027;-76
2023/04/06 05:29:21;;;;;;;84.47;31.40;;;-2.40;99.90;;;;;;4963488;28;20110;-76
2023/04/06 05:31:46;;;;;;;149.57;60.25;;;-2.20;99.90;;;;;;4965120;28;20038;-76
2023/04/06 05:34:12;;;;;;;151.15;64.00;;;-2.00;99.90;;;;;;4964739;28;20026;-76
2023/04/06 05:36:40;;;;;;;118.47;45.47;;;-1.90;99.20;;;;;;4982270;28;20087;-76
2023/04/06 05:39:05;;;;;;;121.20;46.90;;;-1.80;97.90;;;;;;4980968;28;20027;-76
2023/04/06 05:41:31;;;;;;;71.22;29.83;;;-1.60;95.80;;;;;;4985438;28;20033;-75
2023/04/06 05:43:57;;;;;;;23.55;12.88;;;-1.50;91.30;;;;;;4986014;28;20019;-76
2023/04/06 05:46:22;;;;;;;23.80;12.70;;;-1.50;81.90;;;;;;4981860;28;20027;-76
2023/04/06 05:48:48;;;;;;;24.05;12.50;;;-1.30;78.30;;;;;;4983798;28;20089;-76
2023/04/06 05:51:13;;;;;;;18.52;10.85;;;-1.20;77.20;;;;;;4989295;28;20143;-76
2023/04/06 05:53:39;;;;;;;35.83;22.95;;;-1.10;74.90;;;;;;4979727;28;20066;-76
2023/04/06 05:56:05;;;;;;;16.50;11.15;;;-1.20;72.40;;;;;;4977017;28;20101;-76
2023/04/06 05:58:31;;;;;;;15.02;11.30;;;-1.10;71.80;;;;;;4958583;28;20027;-76
2023/04/06 06:01:00;;;;;;;16.08;9.98;;;-1.10;71.50;;;;;;4977067;28;20472;-76
2023/04/06 06:03:26;;;;;;;16.65;8.85;;;-1.00;70.70;;;;;;4976927;28;20369;-76
2023/04/06 06:05:52;;;;;;;13.88;9.88;;;-1.00;70.20;;;;;;4976957;28;20077;-76
2023/04/06 06:08:17;;;;;;;15.68;10.20;;;-1.00;69.80;;;;;;4980104;28;20026;-75
2023/04/06 06:10:43;;;;;;;14.00;8.82;;;-0.90;69.80;;;;;;4967247;28;20445;-75
2023/04/06 06:13:09;;;;;;;20.08;10.85;;;-0.90;69.50;;;;;;4988922;28;20038;-76
2023/04/06 06:15:35;;;;;;;19.15;9.80;;;-0.80;69.90;;;;;;4983172;28;20025;-76
2023/04/06 06:18:01;;;;;;;17.70;10.00;;;-0.70;69.30;;;;;;4984357;28;20019;-76
2023/04/06 06:20:27;;;;;;;16.50;10.02;;;-0.70;69.50;;;;;;4985832;28;20038;-76
2023/04/06 06:22:52;;;;;;;22.70;11.57;;;-0.60;69.60;;;;;;4959154;28;20065;-76
2023/04/06 06:25:18;;;;;;;21.33;11.25;;;-0.60;69.00;;;;;;4984513;28;20030;-76
2023/04/06 06:27:44;;;;;;;21.55;10.80;;;-0.50;69.20;;;;;;4960163;28;20019;-76
2023/04/06 06:30:10;;;;;;;17.85;11.20;;;-0.70;69.40;;;;;;4981357;28;20030;-75
2023/04/06 06:32:35;;;;;;;22.63;12.43;;;-0.70;69.70;;;;;;4982836;28;20049;-76
2023/04/06 06:35:01;;;;;;;19.27;11.23;;;-0.70;69.80;;;;;;4975529;28;20037;-75
2023/04/06 06:37:27;;;;;;;16.52;10.77;;;-0.50;70.20;;;;;;4975170;28;20401;-76
2023/04/06 06:39:52;;;;;;;17.98;11.15;;;-0.50;69.50;;;;;;4975374;28;20023;-75
2023/04/06 06:42:18;;;;;;;20.70;12.52;;;-0.50;69.40;;;;;;4958045;28;20413;-76
2023/04/06 06:44:44;;;;;;;21.27;11.13;;;-0.40;69.20;;;;;;4975585;28;20058;-76
2023/04/06 06:47:09;;;;;;;15.18;9.35;;;-0.40;68.80;;;;;;4959990;28;20053;-75
2023/04/06 06:49:35;;;;;;;20.55;11.23;;;-0.50;68.60;;;;;;4966432;28;20026;-75
2023/04/06 06:52:00;;;;;;;18.90;11.15;;;-0.40;68.80;;;;;;4956941;28;20030;-75
2023/04/06 06:54:26;;;;;;;16.58;10.70;;;-0.40;69.30;;;;;;4957253;28;20023;-75
2023/04/06 06:56:52;;;;;;;15.82;11.00;;;-0.50;68.80;;;;;;4985374;28;20057;-76
2023/04/06 06:59:17;;;;;;;19.35;10.98;;;-0.50;68.90;;;;;;4976606;28;20033;-75
2023/04/06 07:01:43;;;;;;;17.60;11.15;;;-0.50;69.00;;;;;;4994334;28;20026;-75
2023/04/06 07:04:08;;;;;;;24.95;14.95;;;-0.40;69.00;;;;;;4967807;28;20492;-75
2023/04/06 07:06:37;;;;;;;25.52;14.35;;;-0.40;69.20;;;;;;4983981;28;20023;-76
2023/04/06 07:09:03;;;;;;;23.80;12.88;;;-0.40;69.30;;;;;;4980272;28;20034;-76
2023/04/06 07:11:30;;;;;;;27.80;14.32;;;-0.40;68.80;;;;;;4991141;28;20034;-76
2023/04/06 07:13:55;;;;;;;16.00;9.23;;;-0.30;68.90;;;;;;4993861;28;20073;-76
2023/04/06 07:16:21;;;;;;;19.85;10.50;;;-0.30;67.90;;;;;;4973501;28;20500;-75
2023/04/06 07:18:47;;;;;;;20.48;12.77;;;-0.30;68.30;;;;;;4956447;28;20035;-75
2023/04/06 07:21:12;;;;;;;18.27;12.75;;;-0.20;68.90;;;;;;4974685;28;20058;-75
2023/04/06 07:23:38;;;;;;;20.63;12.30;;;-0.20;68.70;;;;;;4956390;28;20362;-75
2023/04/06 07:26:04;;;;;;;17.67;11.85;;;-0.30;69.10;;;;;;4973582;28;20465;-75
2023/04/06 07:28:30;;;;;;;22.80;14.15;;;-0.40;70.40;;;;;;4980173;28;20023;-76
2023/04/06 07:30:56;;;;;;;22.02;12.13;;;-0.40;69.90;;;;;;4973577;28;20031;-75
2023/04/06 07:33:21;;;;;;;20.40;10.70;;;-0.40;69.60;;;;;;4974702;28;20366;-76
2023/04/06 07:35:47;;;;;;;20.05;11.07;;;-0.50;69.10;;;;;;4974306;28;20079;-75
2023/04/06 07:38:13;;;;;;;20.48;12.60;;;-0.60;69.60;;;;;;4974812;28;20564;-76
2023/04/06 07:40:39;;;;;;;21.77;11.90;;;-0.40;70.00;;;;;;4972323;28;20039;-75
2023/04/06 07:43:05;;;;;;;24.80;13.27;;;-0.40;69.70;;;;;;4974197;28;20481;-75
2023/04/06 07:45:31;;;;;;;18.33;11.77;;;-0.30;70.00;;;;;;4974085;28;20038;-75
2023/04/06 07:47:56;;;;;;;23.15;13.73;;;-0.10;69.40;;;;;;4974591;28;20085;-76
2023/04/06 07:50:22;;;;;;;18.50;10.90;;;-0.10;67.90;;;;;;4973862;28;20496;-75
2023/04/06 07:52:48;;;;;;;13.70;9.82;;;0.00;67.50;;;;;;4956957;28;20023;-75
2023/04/06 07:55:14;;;;;;;27.58;12.77;;;0.00;67.00;;;;;;4973846;28;20397;-75
2023/04/06 07:57:39;;;;;;;17.67;10.70;;;-0.20;66.20;;;;;;4973440;28;20030;-75
2023/04/06 08:00:06;;;;;;;18.77;10.75;;;-0.30;66.30;;;;;;4974175;28;20119;-74
2023/04/06 08:02:32;;;;;;;12.85;9.43;;;-0.40;66.50;;;;;;4971571;28;20045;-75
2023/04/06 08:04:57;;;;;;;16.58;10.00;;;-0.30;66.80;;;;;;4973941;28;20049;-75
2023/04/06 08:07:23;;;;;;;19.38;10.32;;;-0.10;66.90;;;;;;4974045;28;20022;-75
2023/04/06 08:09:49;;;;;;;16.15;11.32;;;0.10;66.50;;;;;;4973128;28;20047;-75
2023/04/06 08:12:15;;;;;;;15.52;8.25;;;-0.10;65.80;;;;;;4971519;28;20058;-75
2023/04/06 08:14:40;;;;;;;15.38;9.43;;;0.00;65.60;;;;;;4958915;28;20042;-75
2023/04/06 08:17:06;;;;;;;15.02;8.55;;;0.20;65.20;;;;;;4981862;28;20022;-75
2023/04/06 08:19:32;;;;;;;14.23;7.40;;;0.20;64.80;;;;;;4962128;28;20030;-75
2023/04/06 08:21:57;;;;;;;15.95;8.80;;;0.20;64.00;;;;;;4982209;28;20392;-75
2023/04/06 08:24:23;;;;;;;9.77;6.75;;;0.50;64.00;;;;;;4963751;28;20030;-75
2023/04/06 08:26:50;;;;;;;8.65;6.18;;;0.40;63.40;;;;;;4983234;28;20101;-75
2023/04/06 08:29:16;;;;;;;14.13;8.75;;;0.60;63.20;;;;;;4955092;28;20494;-75
2023/04/06 08:31:41;;;;;;;8.52;6.13;;;0.70;62.60;;;;;;4962023;28;20066;-75
2023/04/06 08:34:07;;;;;;;7.50;5.95;;;0.70;62.70;;;;;;4982759;28;20026;-75
2023/04/06 08:36:33;;;;;;;7.97;6.53;;;0.90;62.10;;;;;;4983400;28;20505;-75
2023/04/06 08:39:00;;;;;;;9.25;6.72;;;0.70;61.60;;;;;;4979699;28;20046;-75
2023/04/06 08:41:27;;;;;;;8.93;6.47;;;0.90;61.60;;;;;;4964621;28;20070;-76
2023/04/06 08:43:57;;;;;;;13.00;7.85;;;0.90;61.80;;;;;;4962372;28;20073;-75
2023/04/06 08:46:29;;;;;;;11.77;7.65;;;0.90;61.40;;;;;;4983572;28;20497;-76
2023/04/06 08:48:55;;;;;;;9.75;6.57;;;0.80;61.70;;;;;;4964771;28;20022;-75
2023/04/06 08:51:23;;;;;;;8.35;5.78;;;1.10;61.90;;;;;;4962809;28;20058;-76
2023/04/06 08:53:50;;;;;;;10.80;6.13;;;1.10;61.20;;;;;;4983024;28;20025;-76
2023/04/06 08:56:15;;;;;;;10.63;6.70;;;1.20;61.20;;;;;;4960214;28;20026;-76
2023/04/06 08:58:42;;;;;;;8.52;5.38;;;1.20;61.20;;;;;;4980509;28;20033;-76
2023/04/06 09:01:11;;;;;;;9.32;7.15;;;1.20;60.90;;;;;;4962073;28;20038;-76
2023/04/06 09:03:40;;;;;;;10.02;6.88;;;1.60;60.70;;;;;;4982773;28;20097;-76
2023/04/06 09:06:06;;;;;;;9.85;6.97;;;1.90;60.50;;;;;;4983509;28;20053;-76
2023/04/06 09:08:36;;;;;;;8.65;6.03;;;1.80;59.90;;;;;;4976911;28;20027;-76
2023/04/06 09:11:04;;;;;;;8.98;6.43;;;1.50;59.80;;;;;;4973192;28;20513;-74
2023/04/06 09:13:31;;;;;;;10.57;7.47;;;1.50;59.50;;;;;;4972644;28;20524;-76
2023/04/06 09:16:05;;;;;;;7.72;5.00;;;1.40;60.10;;;;;;4955945;28;20041;-76
2023/04/06 09:18:34;;;;;;;10.90;6.75;;;1.30;60.10;;;;;;4955802;28;20358;-74
2023/04/06 09:21:06;;;;;;;14.85;7.50;;;1.60;60.70;;;;;;4972697;28;20035;-75
2023/04/06 09:23:32;;;;;;;14.30;5.28;;;1.80;60.00;;;;;;4971240;28;20034;-75
2023/04/06 09:26:10;;;;;;;14.23;7.60;;;1.60;59.60;;;;;;4973222;28;20045;-76
2023/04/06 09:28:51;;;;;;;15.85;9.27;;;1.80;59.80;;;;;;4975368;28;20082;-76
2023/04/06 09:31:22;;;;;;;11.90;6.93;;;1.50;59.70;;;;;;4975643;28;20039;-76
2023/04/06 09:33:47;;;;;;;22.10;10.75;;;1.50;59.90;;;;;;4975730;28;20389;-75
2023/04/06 09:36:15;;;;;;;71.43;34.00;;;1.70;59.90;;;;;;4959520;28;20035;-74
2023/04/06 09:38:54;;;;;;;17.17;9.80;;;1.80;60.80;;;;;;4958869;28;20037;-75
2023/04/06 09:41:27;;;;;;;16.42;8.07;;;2.00;59.70;;;;;;4976364;28;20396;-75
2023/04/06 09:44:07;;;;;;;11.57;7.07;;;2.10;59.40;;;;;;4976867;28;20074;-75
2023/04/06 09:46:43;;;;;;;10.93;7.65;;;1.90;59.30;;;;;;4976378;28;20027;-76
2023/04/06 09:49:10;;;;;;;27.85;14.73;;;1.90;59.70;;;;;;4975604;28;20469;-76
2023/04/06 09:51:46;;;;;;;34.25;18.60;;;1.90;59.70;;;;;;4974722;28;20054;-76
2023/04/06 09:54:17;;;;;;;51.50;29.98;;;1.90;59.80;;;;;;4983921;28;20488;-76
2023/04/06 09:56:43;;;;;;;25.33;15.85;;;1.80;60.10;;;;;;4977772;28;20035;-76
2023/04/06 09:59:13;;;;;;;14.30;10.25;;;1.90;60.30;;;;;;4976645;28;20523;-76
2023/04/06 10:01:40;;;;;;;12.93;8.60;;;1.90;61.00;;;;;;4976155;28;20548;-76
2023/04/06 10:04:33;;;;;;;11.00;8.85;;;1.80;59.60;;;;;;4975317;28;20015;-76
2023/04/06 10:06:59;;;;;;;;;;;1.70;60.20;;;;;;4976325;28;20463;-74
2023/04/06 10:09:28;;;;;;;21.98;14.93;;;1.80;60.40;;;;;;4958887;28;19985;-75
2023/04/06 10:11:55;;;;;;;23.67;14.98;;;1.90;60.90;;;;;;4975424;28;20039;-75
2023/04/06 10:14:21;;;;;;;18.23;13.93;;;1.90;60.20;;;;;;4982013;28;20019;-75
2023/04/06 10:16:49;;;;;;;13.88;10.60;;;1.70;60.80;;;;;;4974552;28;20501;-75
2023/04/06 10:19:24;;;;;;;22.10;12.95;;;1.60;60.70;;;;;;4975063;28;20384;-75
2023/04/06 10:21:54;;;;;;;13.25;9.18;;;1.60;60.90;;;;;;4974994;28;20129;-75
2023/04/06 10:24:20;;;;;;;15.32;9.40;;;1.80;61.00;;;;;;4958789;28;20066;-76
2023/04/06 10:27:06;;;;;;;16.33;11.20;;;1.70;60.70;;;;;;4957764;28;20035;-76
2023/04/06 10:29:51;;;;;;;12.90;7.50;;;1.70;60.90;;;;;;4958264;28;20042;-76
2023/04/06 10:32:16;;;;;;;14.32;10.23;;;2.00;60.70;;;;;;4975748;28;20050;-76
2023/04/06 10:34:42;;;;;;;16.98;10.38;;;2.30;60.70;;;;;;4958236;28;20389;-76
2023/04/06 10:37:15;;;;;;;15.30;10.40;;;2.30;59.80;;;;;;4975248;28;20043;-76
2023/04/06 10:39:59;;;;;;;17.00;10.18;;;2.20;61.20;;;;;;4974286;28;20117;-76
2023/04/06 10:42:35;;;;;;;13.23;8.57;;;2.30;60.60;;;;;;4957600;28;20121;-75
2023/04/06 10:45:01;;;;;;;13.23;8.45;;;2.20;62.00;;;;;;4975831;28;20508;-74
2023/04/06 10:47:27;;;;;;;13.45;8.82;;;2.10;62.00;;;;;;4974376;28;20039;-75
2023/04/06 10:49:52;;;;;;;10.63;7.78;;;2.10;62.30;;;;;;4975201;28;20023;-74
2023/04/06 10:52:18;;;;;;;14.65;9.32;;;2.10;63.20;;;;;;4974601;28;20046;-74
2023/04/06 10:54:44;;;;;;;28.60;14.30;;;2.10;62.20;;;;;;4975158;28;20109;-76
2023/04/06 10:57:10;;;;;;;11.65;7.95;;;2.10;61.50;;;;;;4957140;28;20046;-76
2023/04/06 10:59:36;;;;;;;21.33;12.07;;;2.10;62.00;;;;;;4957507;28;20027;-76
2023/04/06 11:02:01;;;;;;;59.47;26.85;;;2.00;62.70;;;;;;4957682;28;20039;-76
2023/04/06 11:04:27;;;;;;;35.40;19.13;;;2.10;63.60;;;;;;4957658;28;20030;-76
2023/04/06 11:06:54;;;;;;;10.70;7.72;;;2.20;64.20;;;;;;4974370;28;20121;-76
2023/04/06 11:09:28;;;;;;;13.98;7.78;;;2.10;63.90;;;;;;4957663;28;20477;-76
2023/04/06 11:11:55;;;;;;;25.73;12.52;;;1.80;63.60;;;;;;4974331;28;20050;-76
2023/04/06 11:14:20;;;;;;;11.38;7.68;;;1.90;64.70;;;;;;4974977;28;20469;-76
2023/04/06 11:16:49;;;;;;;31.92;15.88;;;1.90;64.40;;;;;;4974425;28;20105;-76
2023/04/06 11:19:15;;;;;;;25.08;13.23;;;2.00;63.90;;;;;;4975073;28;20470;-76
2023/04/06 11:21:43;;;;;;;11.43;6.97;;;2.00;64.70;;;;;;4973615;28;20067;-76
2023/04/06 11:24:17;;;;;;;17.55;9.15;;;2.00;65.10;;;;;;4974868;28;20019;-76
2023/04/06 11:26:55;;;;;;;15.63;8.95;;;1.90;66.00;;;;;;4973232;28;20023;-76
2023/04/06 11:29:23;;;;;;;17.50;9.32;;;1.70;66.20;;;;;;4974675;28;20027;-76
2023/04/06 11:31:53;;;;;;;20.60;11.90;;;1.80;66.90;;;;;;4974230;28;20031;-75
2023/04/06 11:34:20;;;;;;;24.63;11.82;;;1.80;68.00;;;;;;4974609;28;20084;-76
2023/04/06 11:36:48;;;;;;;37.03;20.58;;;1.80;68.70;;;;;;4973576;28;20019;-75
2023/04/06 11:39:22;;;;;;;31.08;15.60;;;1.90;70.40;;;;;;4974768;28;20053;-75
2023/04/06 11:41:50;;;;;;;14.80;10.40;;;2.00;70.90;;;;;;4956415;28;20374;-75
2023/04/06 11:44:26;;;;;;;26.77;14.05;;;1.70;70.60;;;;;;4973747;28;20447;-75
2023/04/06 11:46:53;;;;;;;20.30;11.52;;;1.60;72.70;;;;;;4974363;28;20086;-75
2023/04/06 11:49:19;;;;;;;21.13;12.82;;;1.70;73.60;;;;;;4955574;28;20081;-74
2023/04/06 11:51:46;;;;;;;19.35;11.75;;;1.60;74.40;;;;;;4955489;28;20034;-74
2023/04/06 11:54:12;;;;;;;23.35;13.32;;;1.60;75.90;;;;;;4974003;28;20116;-74
2023/04/06 11:56:38;;;;;;;34.60;18.55;;;1.50;76.10;;;;;;4973509;28;20030;-75
2023/04/06 11:59:04;;;;;;;17.52;12.23;;;1.50;78.80;;;;;;4974230;28;20513;-74
2023/04/06 12:01:30;;;;;;;28.45;16.38;;;1.30;79.30;;;;;;4974030;28;20027;-75
2023/04/06 12:03:56;;;;;;;21.73;13.80;;;1.20;81.60;;;;;;4956867;28;20034;-76
2023/04/06 12:06:22;;;;;;;22.35;11.55;;;1.00;83.10;;;;;;4956422;28;20053;-76
2023/04/06 12:08:48;;;;;;;17.55;9.70;;;1.00;84.70;;;;;;4973785;28;20065;-76
2023/04/06 12:11:14;;;;;;;25.13;13.52;;;0.90;87.40;;;;;;4973754;28;20073;-75
2023/04/06 12:13:42;;;;;;;20.42;12.07;;;0.80;90.40;;;;;;4973585;28;20039;-75
2023/04/06 12:16:07;;;;;;;19.42;12.90;;;0.80;90.80;;;;;;4974184;28;20023;-75
2023/04/06 12:18:33;;;;;;;19.13;12.82;;;0.80;91.60;;;;;;4973466;28;20119;-75
2023/04/06 12:20:59;;;;;;;19.10;13.10;;;0.70;93.40;;;;;;4972561;28;20114;-75
2023/04/06 12:23:24;;;;;;;19.65;12.18;;;0.80;96.60;;;;;;4956209;28;20030;-74
2023/04/06 12:25:50;;;;;;;18.25;13.20;;;0.80;97.00;;;;;;4973010;28;20035;-74
2023/04/06 12:28:16;;;;;;;22.65;12.65;;;0.70;96.90;;;;;;4956289;28;20505;-75
2023/04/06 12:30:42;;;;;;;17.23;10.55;;;0.70;99.90;;;;;;4973357;28;20053;-74